Time;durP1;ratioP1;P1;durP2;ratioP2;P2;SDS_P1;SDS_P2;PMS_P1;PMS_P2;Temp;Humidity;BMP_temperature;BMP_pressure;BME280_temperature;BME280_humidity;BME280_pressure;Samples;Min_cycle;Max_cycle;Signal;HPM_P1;HPM_P2
2022/12/03 00:01:51;;;;;;;23.08;3.70;;;;;;;0.01;0.00;59042.03;5019711;28;20120;-54
2022/12/03 00:04:16;;;;;;;39.75;7.78;;;;;;;0.01;0.00;59042.03;5020961;28;20029;-52
2022/12/03 00:06:41;;;;;;;29.92;6.80;;;;;;;0.01;0.00;59042.03;5020382;28;20037;-53
2022/12/03 00:09:07;;;;;;;32.45;6.95;;;;;;;0.01;0.00;59042.03;5021439;28;20025;-52
2022/12/03 00:11:32;;;;;;;46.40;10.70;;;;;;;0.01;0.00;59042.03;5019830;28;20033;-53
2022/12/03 00:13:58;;;;;;;42.80;11.23;;;;;;;0.01;0.00;59042.03;5020276;28;20025;-54
2022/12/03 00:16:23;;;;;;;43.88;9.90;;;;;;;0.01;0.00;59042.03;5020424;28;20037;-58
2022/12/03 00:18:48;;;;;;;51.95;11.82;;;;;;;0.01;0.00;59042.03;5020399;28;20033;-57
2022/12/03 00:21:14;;;;;;;43.70;10.52;;;;;;;0.01;0.00;59042.03;5020107;28;20041;-55
2022/12/03 00:23:39;;;;;;;48.08;11.45;;;;;;;0.01;0.00;59042.03;5020398;28;20124;-55
2022/12/03 00:26:04;;;;;;;37.33;7.15;;;;;;;0.01;0.00;59042.03;5019949;28;20038;-56
2022/12/03 00:28:30;;;;;;;42.95;10.40;;;;;;;0.01;0.00;59042.03;5021024;28;20156;-54
2022/12/03 00:30:55;;;;;;;58.05;11.82;;;;;;;0.01;0.00;59042.03;5019542;28;20144;-55
2022/12/03 00:33:20;;;;;;;44.67;11.10;;;;;;;0.01;0.00;59042.03;5020634;28;20025;-54
2022/12/03 00:35:46;;;;;;;57.50;12.73;;;;;;;0.01;0.00;59042.03;5019837;28;20087;-52
2022/12/03 00:38:11;;;;;;;48.05;11.00;;;;;;;0.01;0.00;59042.03;5020835;28;20040;-52
2022/12/03 00:40:37;;;;;;;64.75;15.45;;;;;;;0.01;0.00;59042.03;5019690;28;20128;-51
2022/12/03 00:43:02;;;;;;;57.53;12.90;;;;;;;0.01;0.00;59042.03;5020266;28;20029;-52
2022/12/03 00:45:27;;;;;;;52.63;13.32;;;;;;;0.01;0.00;59042.03;5019688;28;20125;-53
2022/12/03 00:47:53;;;;;;;36.25;8.90;;;;;;;0.01;0.00;59042.03;5020247;28;20060;-55
2022/12/03 00:50:18;;;;;;;47.63;10.98;;;;;;;0.01;0.00;59042.03;5019882;28;20103;-55
2022/12/03 00:52:43;;;;;;;56.75;14.30;;;;;;;0.01;0.00;59042.03;5020055;28;20040;-54
2022/12/03 00:55:09;;;;;;;64.75;13.52;;;;;;;0.01;0.00;59042.03;5019632;28;20026;-56
2022/12/03 00:57:34;;;;;;;58.03;15.00;;;;;;;0.01;0.00;59042.03;5020233;28;20023;-55
2022/12/03 00:59:59;;;;;;;55.70;14.80;;;;;;;0.01;0.00;59042.03;5019994;28;20036;-55
2022/12/03 01:02:25;;;;;;;54.88;14.98;;;;;;;0.01;0.00;59042.03;5019162;28;20148;-54
2022/12/03 01:04:50;;;;;;;57.95;14.90;;;;;;;0.01;0.00;59042.03;5020457;28;20104;-56
2022/12/03 01:07:15;;;;;;;68.80;16.27;;;;;;;0.01;0.00;59042.03;5019446;28;20041;-55
2022/12/03 01:09:41;;;;;;;57.13;14.05;;;;;;;0.01;0.00;59042.03;5019948;28;20585;-55
2022/12/03 01:12:06;;;;;;;66.20;15.98;;;;;;;0.01;0.00;59042.03;5019181;28;20048;-54
2022/12/03 01:14:31;;;;;;;50.58;14.00;;;;;;;0.01;0.00;59042.03;5005687;28;20123;-54
2022/12/03 01:16:57;;;;;;;71.80;17.33;;;;;;;0.01;0.00;59042.03;5019450;28;20045;-56
2022/12/03 01:19:23;;;;;;;63.38;14.95;;;;;;;0.01;0.00;59042.03;5018412;28;20032;-56
2022/12/03 01:21:50;;;;;;;57.67;14.55;;;;;;;0.01;0.00;59042.03;5018534;28;20936;-54
2022/12/03 01:24:16;;;;;;;52.75;14.23;;;;;;;0.01;0.00;59042.03;5019569;28;20074;-54
2022/12/03 01:26:41;;;;;;;70.97;17.38;;;;;;;0.01;0.00;59042.03;5018863;28;20128;-54
2022/12/03 01:29:06;;;;;;;53.30;14.25;;;;;;;0.01;0.00;59042.03;5019868;28;20104;-54
2022/12/03 01:34:16;;;;;;;58.65;15.52;;;;;;;0.01;0.00;59042.03;5019825;28;20044;-53
2022/12/03 01:36:41;;;;;;;66.82;14.50;;;;;;;0.01;0.00;59042.03;5018832;28;20033;-53
2022/12/03 01:39:07;;;;;;;55.22;14.02;;;;;;;0.01;0.00;59042.03;5019440;28;20029;-53
2022/12/03 01:41:34;;;;;;;67.40;15.90;;;;;;;0.01;0.00;59042.03;5017433;28;20039;-55
2022/12/03 01:44:01;;;;;;;62.03;15.90;;;;;;;0.01;0.00;59042.03;5019089;28;20145;-56
2022/12/03 01:46:37;;;;;;;58.97;15.68;;;;;;;0.01;0.00;59042.03;5019035;28;20041;-56
2022/12/03 01:49:03;;;;;;;59.75;15.52;;;;;;;0.01;0.00;59042.03;5019295;28;20025;-55
2022/12/03 01:51:29;;;;;;;30.17;7.20;;;;;;;0.01;0.00;59042.03;5018898;28;20555;-56
2022/12/03 01:53:55;;;;;;;65.78;16.40;;;;;;;0.01;0.00;59042.03;5018823;28;20022;-53
2022/12/03 01:56:20;;;;;;;52.10;13.23;;;;;;;0.01;0.00;59042.03;5018259;28;20168;-55
2022/12/03 01:58:46;;;;;;;78.47;18.60;;;;;;;0.01;0.00;59042.03;5018886;28;20033;-55
2022/12/03 02:01:15;;;;;;;69.07;16.30;;;;;;;0.01;0.00;59042.03;5018489;28;20511;-54
2022/12/03 02:03:42;;;;;;;73.38;17.25;;;;;;;0.01;0.00;59042.03;5017846;28;20026;-55
2022/12/03 02:06:21;;;;;;;84.63;17.77;;;;;;;0.01;0.00;59042.03;5018308;28;20048;-56
2022/12/03 02:08:47;;;;;;;70.53;15.70;;;;;;;0.01;0.00;59042.03;5018161;28;20025;-54
2022/12/03 02:11:13;;;;;;;79.55;17.63;;;;;;;0.01;0.00;59042.03;5017583;28;20727;-55
2022/12/03 02:13:38;;;;;;;94.50;23.88;;;;;;;0.01;0.00;59042.03;5018505;28;20033;-55
2022/12/03 02:16:04;;;;;;;86.97;18.98;;;;;;;0.01;0.00;59042.03;5017562;28;20171;-57
2022/12/03 02:18:29;;;;;;;61.20;13.10;;;;;;;0.01;0.00;59042.03;5018800;28;20108;-57
2022/12/03 02:21:07;;;;;;;81.38;19.40;;;;;;;0.01;0.00;59042.03;5018172;28;20098;-55
2022/12/03 02:23:54;;;;;;;84.35;19.08;;;;;;;0.01;0.00;59042.03;5018435;28;20017;-54
2022/12/03 02:26:20;;;;;;;85.95;19.58;;;;;;;0.01;0.00;59042.03;5017864;28;20055;-56
2022/12/03 02:28:45;;;;;;;90.60;21.33;;;;;;;0.01;0.00;59042.03;5017852;28;20033;-52
2022/12/03 02:31:11;;;;;;;109.40;26.58;;;;;;;0.01;0.00;59042.03;5017520;28;20495;-52
2022/12/03 02:33:37;;;;;;;89.78;22.13;;;;;;;0.01;0.00;59042.03;5018301;28;20101;-52
2022/12/03 02:36:02;;;;;;;72.70;17.80;;;;;;;0.01;0.00;59042.03;5017944;28;20045;-51
2022/12/03 02:38:31;;;;;;;100.97;24.45;;;;;;;0.01;0.00;59042.03;5017873;28;20053;-52
2022/12/03 02:41:01;;;;;;;113.68;26.48;;;;;;;0.01;0.00;59042.03;5017384;28;20047;-52
2022/12/03 02:43:26;;;;;;;109.00;24.83;;;;;;;0.01;0.00;59042.03;5018017;28;20080;-52
2022/12/03 02:45:55;;;;;;;86.88;20.50;;;;;;;0.01;0.00;59042.03;5017540;28;20522;-55
2022/12/03 02:48:25;;;;;;;92.40;21.92;;;;;;;0.01;0.00;59042.03;5017857;28;20025;-57
2022/12/03 02:50:59;;;;;;;85.25;18.52;;;;;;;0.01;0.00;59042.03;5017406;28;20767;-54
2022/12/03 02:53:33;;;;;;;99.10;23.42;;;;;;;0.01;0.00;59042.03;5017842;28;20061;-54
2022/12/03 02:56:01;;;;;;;108.82;25.45;;;;;;;0.01;0.00;59042.03;5017362;28;20041;-54
2022/12/03 02:58:29;;;;;;;37.70;9.30;;;;;;;0.01;0.00;59042.03;5017596;28;20379;-54
2022/12/03 03:00:55;;;;;;;41.53;10.82;;;;;;;0.01;0.00;59042.03;5017268;28;20499;-52
2022/12/03 03:03:22;;;;;;;79.22;20.60;;;;;;;0.01;0.00;59042.03;5017752;28;20040;-51
2022/12/03 03:05:49;;;;;;;93.22;19.88;;;;;;;0.01;0.00;59042.03;5017102;28;20045;-51
2022/12/03 03:08:16;;;;;;;52.17;12.65;;;;;;;0.01;0.00;59042.03;5017945;28;20534;-51
2022/12/03 03:10:42;;;;;;;94.45;20.90;;;;;;;0.01;0.00;59042.03;5016749;28;20042;-55
2022/12/03 03:13:15;;;;;;;90.57;22.50;;;;;;;0.01;0.00;59042.03;5017802;28;20111;-54
2022/12/03 03:15:41;;;;;;;103.32;25.15;;;;;;;0.01;0.00;59042.03;5023347;28;20029;-51
2022/12/03 03:18:08;;;;;;;60.80;13.90;;;;;;;0.01;0.00;59042.03;5024862;28;20033;-52
2022/12/03 03:20:34;;;;;;;87.13;19.20;;;;;;;0.01;0.00;59042.03;5024154;28;20033;-54
2022/12/03 03:23:20;;;;;;;90.80;19.75;;;;;;;0.01;0.00;59042.03;5023961;28;20052;-54
2022/12/03 03:25:52;;;;;;;75.00;19.02;;;;;;;0.01;0.00;59042.03;5023380;28;20037;-52
2022/12/03 03:28:18;;;;;;;76.20;18.67;;;;;;;0.01;0.00;59042.03;5024058;28;20701;-51
2022/12/03 03:30:44;;;;;;;80.07;19.05;;;;;;;0.01;0.00;59042.03;5023709;28;20557;-53
2022/12/03 03:33:12;;;;;;;77.97;17.95;;;;;;;0.01;0.00;59042.03;5005899;28;20029;-52
2022/12/03 03:35:38;;;;;;;76.55;19.55;;;;;;;0.01;0.00;59042.03;5023475;28;20033;-54
2022/12/03 03:38:04;;;;;;;86.28;19.65;;;;;;;0.01;0.00;59042.03;5024258;28;20032;-51
2022/12/03 03:40:30;;;;;;;71.88;18.25;;;;;;;0.01;0.00;59042.03;5023578;28;20068;-51
2022/12/03 03:42:56;;;;;;;81.65;19.02;;;;;;;0.01;0.00;59042.03;5023959;28;20018;-51
2022/12/03 03:45:22;;;;;;;74.40;16.95;;;;;;;0.01;0.00;59042.03;5023259;28;20033;-54
2022/12/03 03:47:48;;;;;;;76.90;18.73;;;;;;;0.01;0.00;59042.03;5024078;28;20119;-51
2022/12/03 03:50:14;;;;;;;79.93;18.52;;;;;;;0.01;0.00;59042.03;5023373;28;20501;-52
2022/12/03 03:52:41;;;;;;;56.55;13.93;;;;;;;0.01;0.00;59042.03;5023362;28;20215;-52
2022/12/03 03:55:09;;;;;;;74.50;17.25;;;;;;;0.01;0.00;59042.03;5023802;28;20116;-53
2022/12/03 03:57:35;;;;;;;72.70;18.27;;;;;;;0.01;0.00;59042.03;5023299;28;20038;-53
2022/12/03 04:00:01;;;;;;;69.45;20.23;;;;;;;0.01;0.00;59042.03;5023770;28;20124;-54
2022/12/03 04:02:27;;;;;;;84.53;19.13;;;;;;;0.01;0.00;59042.03;5022749;28;20065;-53
2022/12/03 04:04:53;;;;;;;66.47;15.73;;;;;;;0.01;0.00;59042.03;5023953;28;20055;-54
2022/12/03 04:07:19;;;;;;;82.65;18.77;;;;;;;0.01;0.00;59042.03;5023292;28;20037;-52
2022/12/03 04:09:44;;;;;;;77.40;18.70;;;;;;;0.01;0.00;59042.03;5024129;28;20152;-52
2022/12/03 04:14:55;;;;;;;83.47;18.42;;;;;;;0.01;0.00;59042.03;5024122;28;20064;-53
2022/12/03 04:17:20;;;;;;;71.03;18.45;;;;;;;0.01;0.00;59042.03;5023182;28;20037;-53
2022/12/03 04:19:46;;;;;;;67.35;16.45;;;;;;;0.01;0.00;59042.03;5023467;28;20127;-53
2022/12/03 04:28:47;;;;;;;79.38;17.30;;;;;;;0.01;0.00;59042.03;5022961;28;20431;-53
2022/12/03 04:30:29;;;;;;;83.18;21.42;;;;;;;0.01;0.00;59042.03;4994656;28;20045;-53
2022/12/03 04:35:44;;;;;;;64.63;15.25;;;;;;;0.01;0.00;59042.03;5020325;28;20091;-54
2022/12/03 04:38:10;;;;;;;74.20;18.25;;;;;;;0.01;0.00;59042.03;5020513;28;20463;-53
2022/12/03 04:44:32;;;;;;;61.23;14.40;;;;;;;0.01;0.00;59042.03;4939898;29;20027;-52
2022/12/03 04:46:23;;;;;;;64.22;17.50;;;;;;;0.01;0.00;59042.03;5013897;28;20416;-53
2022/12/03 04:48:48;;;;;;;81.88;20.20;;;;;;;0.01;0.00;59042.03;5020690;28;20026;-55
2022/12/03 04:51:13;;;;;;;73.97;18.88;;;;;;;0.01;0.00;59042.03;5019418;28;20049;-53
2022/12/03 04:53:39;;;;;;;56.03;13.80;;;;;;;0.01;0.00;59042.03;5020046;28;20022;-52
2022/12/03 04:56:04;;;;;;;84.60;19.75;;;;;;;0.01;0.00;59042.03;5019782;28;20037;-53
2022/12/03 04:58:30;;;;;;;73.90;19.15;;;;;;;0.01;0.00;59042.03;5020105;28;20040;-53
2022/12/03 05:00:55;;;;;;;76.45;18.73;;;;;;;0.01;0.00;59042.03;5019447;28;20049;-54
2022/12/03 05:03:20;;;;;;;71.35;18.70;;;;;;;0.01;0.00;59042.03;5019646;28;20025;-53
2022/12/03 05:05:45;;;;;;;71.13;17.45;;;;;;;0.01;0.00;59042.03;5019405;28;20033;-54
2022/12/03 05:08:11;;;;;;;88.43;18.73;;;;;;;0.01;0.00;59042.03;5020108;28;20112;-53
2022/12/03 05:10:36;;;;;;;64.30;16.95;;;;;;;0.01;0.00;59042.03;5019344;28;20041;-55
2022/12/03 05:13:01;;;;;;;67.72;15.55;;;;;;;0.01;0.00;59042.03;5020048;28;20056;-54
2022/12/03 05:15:28;;;;;;;64.90;15.95;;;;;;;0.01;0.00;59042.03;5018644;28;20120;-54
2022/12/03 05:17:53;;;;;;;71.38;18.90;;;;;;;0.01;0.00;59042.03;5019871;28;20037;-54
2022/12/03 05:23:02;;;;;;;78.00;19.90;;;;;;;0.01;0.00;59042.03;5020013;28;20571;-55
2022/12/03 05:25:27;;;;;;;81.18;19.42;;;;;;;0.01;0.00;59042.03;5018753;28;20048;-55
2022/12/03 05:27:52;;;;;;;63.47;16.60;;;;;;;0.01;0.00;59042.03;5019800;28;20033;-53
2022/12/03 05:30:18;;;;;;;81.50;19.23;;;;;;;0.01;0.00;59042.03;5018864;28;20326;-52
2022/12/03 05:32:43;;;;;;;83.93;19.55;;;;;;;0.01;0.00;59042.03;5019251;28;20029;-53
2022/12/03 05:35:10;;;;;;;75.85;18.63;;;;;;;0.01;0.00;59042.03;5019205;28;20183;-53
2022/12/03 05:37:35;;;;;;;82.13;19.17;;;;;;;0.01;0.00;59042.03;5017652;28;20018;-53
2022/12/03 05:40:00;;;;;;;85.60;20.65;;;;;;;0.01;0.00;59042.03;5019475;28;20447;-53
2022/12/03 05:45:10;;;;;;;63.28;16.13;;;;;;;0.01;0.00;59042.03;5018548;28;20040;-53
2022/12/03 05:47:35;;;;;;;81.82;19.27;;;;;;;0.01;0.00;59042.03;5018900;28;20426;-55
2022/12/03 05:50:00;;;;;;;85.65;21.25;;;;;;;0.01;0.00;59042.03;5019318;28;20061;-53
2022/12/03 05:52:26;;;;;;;89.50;24.00;;;;;;;0.01;0.00;59042.03;5018499;28;20450;-53
2022/12/03 05:54:51;;;;;;;53.60;13.00;;;;;;;0.01;0.00;59042.03;5018974;28;20037;-53
2022/12/03 05:57:16;;;;;;;68.00;17.75;;;;;;;0.01;0.00;59042.03;5018605;28;20037;-52
2022/12/03 05:59:42;;;;;;;82.32;20.00;;;;;;;0.01;0.00;59042.03;5018719;28;20029;-53
2022/12/03 06:02:07;;;;;;;78.20;20.52;;;;;;;0.01;0.00;59042.03;5018157;28;20033;-52
2022/12/03 06:04:32;;;;;;;97.90;24.70;;;;;;;0.01;0.00;59042.03;5019147;28;20025;-53
2022/12/03 06:06:58;;;;;;;94.65;24.30;;;;;;;0.01;0.00;59042.03;5017857;28;20108;-54
2022/12/03 06:09:23;;;;;;;92.68;21.80;;;;;;;0.01;0.00;59042.03;5018792;28;20025;-52
2022/12/03 06:11:52;;;;;;;84.10;21.33;;;;;;;0.01;0.00;59042.03;5018159;28;20124;-52
2022/12/03 06:14:18;;;;;;;71.13;17.25;;;;;;;0.01;0.00;59042.03;5018859;28;20140;-53
2022/12/03 06:16:43;;;;;;;84.85;21.90;;;;;;;0.01;0.00;59042.03;5018179;28;20175;-53
2022/12/03 06:19:08;;;;;;;95.45;22.40;;;;;;;0.01;0.00;59042.03;5018147;28;20025;-55
2022/12/03 06:21:34;;;;;;;79.45;21.08;;;;;;;0.01;0.00;59042.03;5018121;28;20041;-56
2022/12/03 06:24:00;;;;;;;90.80;20.98;;;;;;;0.01;0.00;59042.03;5018335;28;20256;-55
2022/12/03 06:26:25;;;;;;;74.13;18.73;;;;;;;0.01;0.00;59042.03;5018240;28;20071;-54
2022/12/03 06:28:51;;;;;;;81.70;20.85;;;;;;;0.01;0.00;59042.03;5018498;28;20033;-54
2022/12/03 06:31:16;;;;;;;87.85;19.48;;;;;;;0.01;0.00;59042.03;5017373;28;20525;-54
2022/12/03 06:33:41;;;;;;;66.13;16.60;;;;;;;0.01;0.00;59042.03;5018124;28;20037;-54
2022/12/03 06:36:07;;;;;;;92.10;21.98;;;;;;;0.01;0.00;59042.03;5017821;28;20448;-54
2022/12/03 06:38:32;;;;;;;79.85;21.42;;;;;;;0.01;0.00;59042.03;5018651;28;20160;-52
2022/12/03 06:40:58;;;;;;;89.47;21.23;;;;;;;0.01;0.00;59042.03;5017080;28;20053;-53
2022/12/03 06:43:23;;;;;;;93.20;24.92;;;;;;;0.01;0.00;59042.03;5017678;28;20632;-53
2022/12/03 06:45:49;;;;;;;83.40;21.30;;;;;;;0.01;0.00;59042.03;5018038;28;20048;-54
2022/12/03 06:48:14;;;;;;;81.97;21.48;;;;;;;0.01;0.00;59042.03;5017610;28;20517;-54
2022/12/03 06:50:39;;;;;;;90.95;21.50;;;;;;;0.01;0.00;59042.03;5017778;28;20121;-54
2022/12/03 06:53:05;;;;;;;72.57;19.25;;;;;;;0.01;0.00;59042.03;5018108;28;20477;-54
2022/12/03 06:55:30;;;;;;;82.85;20.25;;;;;;;0.01;0.00;59042.03;5017587;28;20041;-53
2022/12/03 06:57:55;;;;;;;75.65;19.95;;;;;;;0.01;0.00;59042.03;5018540;28;20071;-54
2022/12/03 07:00:21;;;;;;;92.05;19.83;;;;;;;0.01;0.00;59042.03;5016947;28;20057;-55
2022/12/03 07:02:46;;;;;;;87.93;19.63;;;;;;;0.01;0.00;59042.03;5017438;28;20112;-56
2022/12/03 07:05:11;;;;;;;71.00;17.63;;;;;;;0.01;0.00;59042.03;5017675;28;20032;-54
2022/12/03 07:07:37;;;;;;;89.80;19.92;;;;;;;0.01;0.00;59042.03;5017618;28;20017;-54
2022/12/03 07:10:03;;;;;;;75.03;20.30;;;;;;;0.01;0.00;59042.03;5018169;28;20071;-53
2022/12/03 07:12:29;;;;;;;79.45;18.88;;;;;;;0.01;0.00;59042.03;5017288;28;20037;-52
2022/12/03 07:14:54;;;;;;;64.68;17.25;;;;;;;0.01;0.00;59042.03;5018171;28;20029;-53
2022/12/03 07:17:19;;;;;;;77.20;19.60;;;;;;;0.01;0.00;59042.03;5017131;28;20037;-53
2022/12/03 07:19:45;;;;;;;93.95;21.60;;;;;;;0.01;0.00;59042.03;5017534;28;20120;-54
2022/12/03 07:22:10;;;;;;;82.00;21.50;;;;;;;0.01;0.00;59042.03;5017448;28;20045;-54
2022/12/03 07:24:36;;;;;;;80.38;19.83;;;;;;;0.01;0.00;59042.03;5018311;28;20666;-53
2022/12/03 07:27:01;;;;;;;83.75;21.27;;;;;;;0.01;0.00;59042.03;5017246;28;20048;-54
2022/12/03 07:29:27;;;;;;;76.40;20.83;;;;;;;0.01;0.00;59042.03;5018532;28;20026;-55
2022/12/03 07:31:52;;;;;;;78.65;18.92;;;;;;;0.01;0.00;59042.03;5016779;28;20410;-54
2022/12/03 07:34:17;;;;;;;85.30;20.73;;;;;;;0.01;0.00;59042.03;5017477;28;20037;-53
2022/12/03 07:36:43;;;;;;;83.32;20.67;;;;;;;0.01;0.00;59042.03;5017306;28;20099;-54
2022/12/03 07:39:08;;;;;;;84.28;20.25;;;;;;;0.01;0.00;59042.03;5017178;28;20100;-53
2022/12/03 07:41:33;;;;;;;81.28;21.55;;;;;;;0.01;0.00;59042.03;5017188;28;20111;-53
2022/12/03 07:43:59;;;;;;;90.45;22.73;;;;;;;0.01;0.00;59042.03;5017568;28;20387;-53
2022/12/03 07:46:24;;;;;;;65.20;16.83;;;;;;;0.01;0.00;59042.03;5017592;28;20623;-55
2022/12/03 07:48:50;;;;;;;74.00;18.83;;;;;;;0.01;0.00;59042.03;5017520;28;20520;-56
2022/12/03 07:51:15;;;;;;;86.95;23.50;;;;;;;0.01;0.00;59042.03;5016881;28;20525;-55
2022/12/03 07:53:40;;;;;;;85.93;23.73;;;;;;;0.01;0.00;59042.03;4990544;28;20838;-56
2022/12/03 07:56:06;;;;;;;78.95;16.55;;;;;;;0.01;0.00;59042.03;5017203;28;20072;-54
2022/12/03 07:58:32;;;;;;;83.22;19.60;;;;;;;0.01;0.00;59042.03;5017695;28;20029;-54
2022/12/03 08:00:57;;;;;;;85.13;22.20;;;;;;;0.01;0.00;59042.03;5018298;28;20037;-53
2022/12/03 08:03:23;;;;;;;82.50;20.70;;;;;;;0.01;0.00;59042.03;5014639;28;20045;-55
2022/12/03 08:05:48;;;;;;;76.63;19.92;;;;;;;0.01;0.00;59042.03;5022119;28;20121;-53
2022/12/03 08:08:13;;;;;;;85.95;19.45;;;;;;;0.01;0.00;59042.03;5023332;28;20131;-54
2022/12/03 08:10:39;;;;;;;84.70;22.27;;;;;;;0.01;0.00;59042.03;5022912;28;20064;-54
2022/12/03 08:13:11;;;;;;;77.75;19.65;;;;;;;0.01;0.00;59042.03;5023201;28;20406;-53
2022/12/03 08:15:37;;;;;;;58.00;16.40;;;;;;;0.01;0.00;59042.03;5020932;28;20040;-55
2022/12/03 08:18:10;;;;;;;43.35;12.52;;;;;;;0.01;0.00;59042.03;5023259;28;20101;-55
2022/12/03 08:20:38;;;;;;;56.92;14.70;;;;;;;0.01;0.00;59042.03;5022357;28;20044;-53
2022/12/03 08:23:11;;;;;;;75.18;19.73;;;;;;;0.01;0.00;59042.03;5022869;28;20152;-56
2022/12/03 08:25:36;;;;;;;80.45;19.27;;;;;;;0.01;0.00;59042.03;5022067;28;20679;-53
2022/12/03 08:28:11;;;;;;;52.17;15.10;;;;;;;0.01;0.00;59042.03;5022861;28;20037;-53
2022/12/03 08:30:36;;;;;;;60.72;17.10;;;;;;;0.01;0.00;59042.03;5022032;28;20479;-56
2022/12/03 08:33:29;;;;;;;66.95;18.15;;;;;;;0.01;0.00;59042.03;5022808;28;20852;-53
2022/12/03 08:35:55;;;;;;;73.88;21.23;;;;;;;0.01;0.00;59042.03;5022572;28;20042;-54
2022/12/03 08:38:23;;;;;;;69.80;20.60;;;;;;;0.01;0.00;59042.03;5022886;28;20041;-53
2022/12/03 08:40:51;;;;;;;71.38;20.15;;;;;;;0.01;0.00;59042.03;5021574;28;20041;-54
2022/12/03 08:43:30;;;;;;;68.20;18.58;;;;;;;0.01;0.00;59042.03;5022780;28;20068;-54
2022/12/03 08:45:56;;;;;;;74.85;20.13;;;;;;;0.01;0.00;59042.03;5021703;28;20550;-53
2022/12/03 08:48:37;;;;;;;67.32;19.48;;;;;;;0.01;0.00;59042.03;5022280;28;20950;-54
2022/12/03 08:51:19;;;;;;;66.85;18.00;;;;;;;0.01;0.00;59042.03;5021891;28;20169;-53
2022/12/03 08:53:50;;;;;;;80.32;20.38;;;;;;;0.01;0.00;59042.03;5022281;28;20029;-57
2022/12/03 08:56:15;;;;;;;66.82;16.70;;;;;;;0.01;0.00;59042.03;5022339;28;20049;-54
2022/12/03 08:58:46;;;;;;;78.18;22.20;;;;;;;0.01;0.00;59042.03;5022374;28;20036;-53
2022/12/03 09:01:11;;;;;;;74.57;19.85;;;;;;;0.01;0.00;59042.03;5021161;28;20099;-55
2022/12/03 09:03:45;;;;;;;63.97;18.63;;;;;;;0.01;0.00;59042.03;5021666;28;20113;-53
2022/12/03 09:06:11;;;;;;;73.47;20.30;;;;;;;0.01;0.00;59042.03;5021679;28;20041;-53
2022/12/03 09:08:36;;;;;;;66.05;19.50;;;;;;;0.01;0.00;59042.03;5022504;28;20407;-53
2022/12/03 09:11:02;;;;;;;72.88;19.08;;;;;;;0.01;0.00;59042.03;5021570;28;20048;-54
2022/12/03 09:13:27;;;;;;;60.40;16.50;;;;;;;0.01;0.00;59042.03;5022180;28;20566;-56
2022/12/03 09:15:53;;;;;;;66.00;19.80;;;;;;;0.01;0.00;59042.03;5021428;28;20428;-55
2022/12/03 09:18:18;;;;;;;60.92;18.40;;;;;;;0.01;0.00;59042.03;5021726;28;20033;-54
2022/12/03 09:20:43;;;;;;;75.40;21.83;;;;;;;0.01;0.00;59042.03;5021208;28;20045;-54
2022/12/03 09:23:09;;;;;;;80.80;22.25;;;;;;;0.01;0.00;59042.03;5021623;28;20052;-57
2022/12/03 09:25:34;;;;;;;48.97;14.30;;;;;;;0.01;0.00;59042.03;5021501;28;20073;-57
2022/12/03 09:27:59;;;;;;;59.63;17.70;;;;;;;0.01;0.00;59042.03;5022035;28;20037;-54
2022/12/03 09:30:25;;;;;;;68.78;17.70;;;;;;;0.01;0.00;59042.03;5020950;28;20466;-55
2022/12/03 09:32:50;;;;;;;70.68;17.23;;;;;;;0.01;0.00;59042.03;5021789;28;20068;-56
2022/12/03 09:35:16;;;;;;;74.45;21.13;;;;;;;0.01;0.00;59042.03;5021282;28;20583;-55
2022/12/03 09:37:41;;;;;;;64.18;18.25;;;;;;;0.01;0.00;59042.03;5021826;28;20033;-55
2022/12/03 09:40:08;;;;;;;45.78;12.63;;;;;;;0.01;0.00;59042.03;5021567;28;20705;-53
2022/12/03 09:42:34;;;;;;;72.80;18.88;;;;;;;0.01;0.00;59042.03;5021206;28;20032;-54
2022/12/03 09:45:01;;;;;;;60.30;18.48;;;;;;;0.01;0.00;59042.03;5021652;28;20033;-56
2022/12/03 09:47:26;;;;;;;50.20;14.88;;;;;;;0.01;0.00;59042.03;5020399;28;20049;-54
2022/12/03 09:49:51;;;;;;;58.42;16.98;;;;;;;0.01;0.00;59042.03;5021315;28;20284;-56
2022/12/03 09:52:24;;;;;;;67.22;17.58;;;;;;;0.01;0.00;59042.03;5020555;28;20046;-56
2022/12/03 09:54:49;;;;;;;48.83;14.15;;;;;;;0.01;0.00;59042.03;5021047;28;20033;-56
2022/12/03 09:57:16;;;;;;;63.05;19.55;;;;;;;0.01;0.00;59042.03;5020707;28;20044;-57
2022/12/03 09:59:41;;;;;;;71.60;20.20;;;;;;;0.01;0.00;59042.03;5021285;28;20057;-54
2022/12/03 10:02:20;;;;;;;69.53;19.40;;;;;;;0.01;0.00;59042.03;5020540;28;20064;-54
2022/12/03 10:04:45;;;;;;;74.32;19.15;;;;;;;0.01;0.00;59042.03;5018218;28;20497;-56
2022/12/03 10:07:11;;;;;;;60.78;18.48;;;;;;;0.01;0.00;59042.03;5018443;28;20037;-55
2022/12/03 10:09:36;;;;;;;73.80;19.67;;;;;;;0.01;0.00;59042.03;5020920;28;20026;-54
2022/12/03 10:12:02;;;;;;;57.78;17.05;;;;;;;0.01;0.00;59042.03;5019868;28;20037;-56
2022/12/03 10:14:27;;;;;;;52.67;17.92;;;;;;;0.01;0.00;59042.03;5020881;28;20037;-54
2022/12/03 10:16:54;;;;;;;66.43;17.48;;;;;;;0.01;0.00;59042.03;5019589;28;20040;-55
2022/12/03 10:19:30;;;;;;;42.80;12.65;;;;;;;0.01;0.00;59042.03;5020566;28;20086;-54
2022/12/03 10:21:55;;;;;;;63.78;17.02;;;;;;;0.01;0.00;59042.03;5019525;28;20040;-55
2022/12/03 10:24:27;;;;;;;51.97;18.15;;;;;;;0.01;0.00;59042.03;5016970;28;20034;-55
2022/12/03 10:26:55;;;;;;;39.88;10.00;;;;;;;0.01;0.00;59042.03;5018635;28;20614;-53
2022/12/03 10:29:26;;;;;;;58.42;18.85;;;;;;;0.01;0.00;59042.03;5019821;28;20657;-54
2022/12/03 10:32:11;;;;;;;58.80;16.17;;;;;;;0.01;0.00;59042.03;5016398;28;20052;-56
2022/12/03 10:34:39;;;;;;;41.42;12.45;;;;;;;0.01;0.00;59042.03;5019412;28;20654;-53
2022/12/03 10:37:19;;;;;;;60.17;16.58;;;;;;;0.01;0.00;59042.03;5019637;28;20277;-54
2022/12/03 10:39:53;;;;;;;45.78;13.38;;;;;;;0.01;0.00;59042.03;5020228;28;20029;-54
2022/12/03 10:42:19;;;;;;;62.42;18.17;;;;;;;0.01;0.00;59042.03;5018318;28;20041;-53
2022/12/03 10:44:44;;;;;;;44.30;11.07;;;;;;;0.01;0.00;59042.03;5020339;28;20091;-54
2022/12/03 10:47:12;;;;;;;49.85;15.82;;;;;;;0.01;0.00;59042.03;5019749;28;20037;-54
2022/12/03 10:49:39;;;;;;;49.45;15.00;;;;;;;0.01;0.00;59042.03;5020025;28;20040;-54
2022/12/03 10:52:06;;;;;;;33.80;11.02;;;;;;;0.01;0.00;59042.03;5018201;28;20038;-55
2022/12/03 10:54:33;;;;;;;52.13;18.05;;;;;;;0.01;0.00;59042.03;5017438;28;20121;-53
2022/12/03 10:57:00;;;;;;;42.35;13.40;;;;;;;0.01;0.00;59042.03;5019020;28;20037;-54
2022/12/03 10:59:30;;;;;;;54.25;17.38;;;;;;;0.01;0.00;59042.03;5020232;28;20162;-55
2022/12/03 11:01:55;;;;;;;49.50;17.63;;;;;;;0.01;0.00;59042.03;5001762;28;20390;-55
2022/12/03 11:04:35;;;;;;;51.35;15.05;;;;;;;0.01;0.00;59042.03;5016875;28;20029;-55
2022/12/03 11:07:02;;;;;;;49.88;14.57;;;;;;;0.01;0.00;59042.03;5018463;28;20037;-55
2022/12/03 11:09:30;;;;;;;49.08;15.40;;;;;;;0.01;0.00;59042.03;5019680;28;20033;-58
2022/12/03 11:12:03;;;;;;;45.45;14.93;;;;;;;0.01;0.00;59042.03;5019765;28;20041;-58
2022/12/03 11:14:50;;;;;;;46.80;13.35;;;;;;;0.01;0.00;59042.03;5017010;28;20032;-58
2022/12/03 11:17:43;;;;;;;45.95;12.85;;;;;;;0.01;0.00;59042.03;5019277;28;20040;-57
2022/12/03 11:20:23;;;;;;;42.42;14.55;;;;;;;0.01;0.00;59042.03;5018725;28;20103;-57
2022/12/03 11:22:56;;;;;;;60.10;16.48;;;;;;;0.01;0.00;59042.03;5015690;28;20585;-56
2022/12/03 11:25:25;;;;;;;46.75;13.73;;;;;;;0.01;0.00;59042.03;5017976;28;20064;-57
2022/12/03 11:28:09;;;;;;;47.10;14.65;;;;;;;0.01;0.00;59042.03;4991011;28;20726;-55
2022/12/03 11:30:43;;;;;;;49.50;14.43;;;;;;;0.01;0.00;59042.03;5018955;28;20037;-55
2022/12/03 11:33:20;;;;;;;46.50;12.52;;;;;;;0.01;0.00;59042.03;5017090;28;20777;-57
2022/12/03 11:36:04;;;;;;;54.40;14.55;;;;;;;0.01;0.00;59042.03;5019503;28;20034;-55
2022/12/03 11:38:35;;;;;;;41.50;12.48;;;;;;;0.01;0.00;59042.03;5022375;28;20526;-56
2022/12/03 11:41:09;;;;;;;43.95;14.65;;;;;;;0.01;0.00;59042.03;5020051;28;20033;-56
2022/12/03 11:43:55;;;;;;;43.78;12.65;;;;;;;0.01;0.00;59042.03;5022626;28;20049;-55
2022/12/03 11:46:28;;;;;;;38.90;12.35;;;;;;;0.01;0.00;59042.03;5022516;28;20045;-56
2022/12/03 11:48:54;;;;;;;;;;;;;;;0.01;0.00;59042.03;5023864;28;20047;-55
2022/12/03 11:51:22;;;;;;;35.70;9.68;;;;;;;0.01;0.00;59042.03;5022444;28;19917;-55
2022/12/03 11:53:50;;;;;;;37.70;11.55;;;;;;;0.01;0.00;59042.03;5023020;28;20037;-55
2022/12/03 11:56:27;;;;;;;28.10;7.40;;;;;;;0.01;0.00;59042.03;5022032;28;20124;-55
2022/12/03 11:59:02;;;;;;;34.58;11.40;;;;;;;0.01;0.00;59042.03;5022706;28;20526;-55